Time;durP1;ratioP1;P1;durP2;ratioP2;P2;SDS_P1;SDS_P2;PMS_P1;PMS_P2;Temp;Humidity;BMP_temperature;BMP_pressure;BME280_temperature;BME280_humidity;BME280_pressure;Samples;Min_cycle;Max_cycle;Signal;HPM_P1;HPM_P2
2021/12/15 00:02:10;;;;;;;43.17;19.33;;;10.70;99.90;;;;;;4958769;29;20090;-87
2021/12/15 00:04:36;;;;;;;46.60;20.88;;;10.70;99.90;;;;;;4958400;28;20027;-86
2021/12/15 00:07:02;;;;;;;57.92;20.40;;;10.70;99.90;;;;;;4974022;28;20039;-87
2021/12/15 00:09:29;;;;;;;52.28;20.48;;;10.70;99.90;;;;;;4956135;28;20110;-87
2021/12/15 00:11:56;;;;;;;43.30;19.30;;;10.70;99.90;;;;;;4955782;29;20043;-87
2021/12/15 00:14:21;;;;;;;51.15;19.10;;;10.70;99.90;;;;;;4953340;28;20039;-85
2021/12/15 00:16:50;;;;;;;47.70;19.95;;;10.60;99.90;;;;;;4956949;29;20032;-92
2021/12/15 00:19:16;;;;;;;46.60;19.27;;;10.60;99.90;;;;;;4954572;29;20024;-89
2021/12/15 00:21:44;;;;;;;45.35;19.35;;;10.60;99.90;;;;;;4952118;29;20033;-92
2021/12/15 00:24:10;;;;;;;57.55;21.63;;;10.60;99.90;;;;;;4957581;28;20038;-85
2021/12/15 00:26:37;;;;;;;44.17;18.58;;;10.60;99.90;;;;;;4951301;29;20505;-88
2021/12/15 00:29:08;;;;;;;48.85;20.55;;;10.60;99.90;;;;;;4950568;28;20066;-86
2021/12/15 00:31:37;;;;;;;47.75;19.35;;;10.60;99.90;;;;;;4961816;28;20037;-89
2021/12/15 00:34:07;;;;;;;47.33;19.77;;;10.60;99.90;;;;;;4962286;28;20072;-88
2021/12/15 00:36:33;;;;;;;43.38;19.48;;;10.60;99.90;;;;;;4951899;28;20070;-87
2021/12/15 00:38:59;;;;;;;52.38;21.05;;;10.60;99.90;;;;;;4956740;28;20038;-91
2021/12/15 00:41:25;;;;;;;45.15;20.83;;;10.60;99.90;;;;;;4956210;29;20106;-91
2021/12/15 00:43:51;;;;;;;47.10;20.48;;;10.60;99.90;;;;;;4953396;29;20080;-88
2021/12/15 00:46:17;;;;;;;46.25;20.08;;;10.50;99.90;;;;;;4955186;29;20035;-91
2021/12/15 00:48:44;;;;;;;52.65;20.83;;;10.60;99.90;;;;;;4956552;28;20098;-90
2021/12/15 00:51:10;;;;;;;45.37;19.40;;;10.60;99.90;;;;;;4955832;29;20114;-83
2021/12/15 00:53:36;;;;;;;50.42;20.98;;;10.70;99.90;;;;;;4971379;28;20071;-89
2021/12/15 00:56:04;;;;;;;45.20;19.67;;;10.70;99.90;;;;;;4952281;29;20027;-88
2021/12/15 00:58:29;;;;;;;43.42;20.20;;;10.70;99.90;;;;;;4961521;28;20518;-90
2021/12/15 01:01:01;;;;;;;49.35;20.30;;;10.70;99.90;;;;;;4954375;29;20027;-86
2021/12/15 01:03:29;;;;;;;47.03;21.50;;;10.60;99.90;;;;;;4957648;28;20038;-93
2021/12/15 01:06:12;;;;;;;43.50;19.48;;;10.60;99.90;;;;;;4957882;28;20032;-91
2021/12/15 01:08:45;;;;;;;42.55;20.30;;;10.60;99.90;;;;;;4955734;28;20122;-87
2021/12/15 01:11:33;;;;;;;47.63;20.95;;;10.70;99.90;;;;;;4974202;28;20107;-91
2021/12/15 01:19:54;;;;;;;46.17;20.83;;;10.70;99.90;;;;;;4944903;28;20300;-88
2021/12/15 01:22:27;;;;;;;45.40;20.33;;;10.70;99.90;;;;;;4956090;29;20499;-87
2021/12/15 01:24:57;;;;;;;42.05;20.17;;;10.70;99.90;;;;;;4980191;28;20019;-83
2021/12/15 01:27:23;;;;;;;45.88;19.70;;;10.60;99.90;;;;;;4958266;28;20050;-85
2021/12/15 01:29:49;;;;;;;47.40;21.85;;;10.60;99.90;;;;;;4955511;29;20499;-86
2021/12/15 01:32:15;;;;;;;50.85;20.92;;;10.60;99.90;;;;;;4968609;28;20031;-84
2021/12/15 01:34:41;;;;;;;51.40;20.95;;;10.60;99.90;;;;;;4956570;28;20050;-85
2021/12/15 01:37:07;;;;;;;49.88;20.90;;;10.70;99.90;;;;;;4969267;28;20569;-87
2021/12/15 01:39:33;;;;;;;44.90;19.75;;;10.70;99.90;;;;;;4962440;28;20423;-85
2021/12/15 01:41:59;;;;;;;43.15;20.65;;;10.70;99.90;;;;;;4957041;28;20035;-87
2021/12/15 01:47:01;;;;;;;46.45;20.67;;;10.70;99.90;;;;;;4953677;29;20054;-87
2021/12/15 01:49:38;;;;;;;45.78;20.45;;;10.70;99.90;;;;;;4954632;29;20039;-85
2021/12/15 01:52:18;;;;;;;43.95;19.75;;;10.70;99.90;;;;;;4967883;28;20054;-84
2021/12/15 01:54:47;;;;;;;39.17;19.80;;;10.70;99.90;;;;;;4953443;29;20122;-85
2021/12/15 01:57:15;;;;;;;53.25;22.52;;;10.70;99.90;;;;;;4955182;28;20065;-86
2021/12/15 01:59:42;;;;;;;45.38;20.00;;;10.70;99.90;;;;;;4951060;29;20122;-86
2021/12/15 02:02:08;;;;;;;45.42;20.25;;;10.70;99.90;;;;;;4953606;29;20499;-86
2021/12/15 02:04:35;;;;;;;44.60;20.00;;;10.70;99.90;;;;;;4954922;28;20110;-85
2021/12/15 02:07:05;;;;;;;46.55;20.17;;;10.80;99.90;;;;;;4953641;28;20023;-85
2021/12/15 02:10:01;;;;;;;46.05;21.77;;;10.70;99.90;;;;;;4951120;29;20034;-86
2021/12/15 02:12:24;;;;;;;46.67;20.55;;;10.60;99.90;;;;;;4969935;28;20070;-87
2021/12/15 02:14:51;;;;;;;47.97;18.20;;;10.70;99.90;;;;;;4975479;28;20027;-85
2021/12/15 02:17:17;;;;;;;46.58;20.45;;;10.70;99.90;;;;;;4957021;28;20066;-86
2021/12/15 02:19:43;;;;;;;50.88;21.42;;;10.70;99.90;;;;;;4977058;28;20030;-85
2021/12/15 02:22:10;;;;;;;44.83;19.50;;;10.70;99.90;;;;;;4955852;28;20035;-85
2021/12/15 02:24:38;;;;;;;50.65;21.80;;;10.70;99.90;;;;;;4956678;28;20038;-85
2021/12/15 02:27:04;;;;;;;44.05;20.15;;;10.70;99.90;;;;;;4974288;28;20030;-85
2021/12/15 02:29:35;;;;;;;45.53;20.27;;;10.70;99.90;;;;;;4956808;28;20023;-86
2021/12/15 02:32:21;;;;;;;41.70;20.75;;;10.70;99.90;;;;;;4976464;28;20030;-85
2021/12/15 02:37:04;;;;;;;41.65;19.05;;;10.70;99.90;;;;;;4979077;28;20045;-85
2021/12/15 02:37:41;;;;;;;45.60;21.00;;;10.70;99.90;;;;;;4979881;28;20031;-85
2021/12/15 02:40:11;;;;;;;51.10;21.90;;;10.60;99.90;;;;;;4956812;28;20043;-86
2021/12/15 02:42:45;;;;;;;48.15;20.40;;;10.60;99.90;;;;;;4955608;28;20201;-86
2021/12/15 02:45:14;;;;;;;49.78;21.08;;;10.60;99.90;;;;;;4978059;28;20049;-86
2021/12/15 02:47:40;;;;;;;43.22;19.15;;;10.60;99.90;;;;;;4982497;28;20082;-86
2021/12/15 02:50:10;;;;;;;46.08;20.00;;;10.70;99.90;;;;;;4975711;28;20030;-84
2021/12/15 02:52:37;;;;;;;44.70;21.08;;;10.70;99.90;;;;;;4978034;28;20033;-85
2021/12/15 02:55:05;;;;;;;42.15;19.30;;;10.70;99.90;;;;;;4960333;28;20027;-83
2021/12/15 02:57:31;;;;;;;45.55;19.90;;;10.70;99.90;;;;;;4957140;28;20043;-86
2021/12/15 03:00:04;;;;;;;45.33;20.38;;;10.70;99.90;;;;;;4960871;28;20090;-85
2021/12/15 03:05:18;;;;;;;45.15;18.92;;;10.70;99.90;;;;;;4985918;28;20121;-85
2021/12/15 03:08:07;;;;;;;45.05;18.70;;;10.70;99.90;;;;;;4963160;28;20047;-86
2021/12/15 03:16:16;;;;;;;44.05;18.45;;;10.60;99.90;;;;;;4980401;28;20038;-85
2021/12/15 03:18:41;;;;;;;44.00;18.88;;;10.60;99.90;;;;;;4959365;28;20034;-86
2021/12/15 03:21:17;;;;;;;42.63;19.40;;;10.70;99.90;;;;;;4991931;28;20108;-85
2021/12/15 03:23:51;;;;;;;37.75;17.70;;;10.70;99.90;;;;;;4974333;28;20033;-86
2021/12/15 03:26:23;;;;;;;45.33;20.15;;;10.70;99.90;;;;;;4971665;28;20453;-87
2021/12/15 03:34:48;;;;;;;40.20;18.83;;;10.70;99.90;;;;;;4981872;28;20049;-86
2021/12/15 03:37:23;;;;;;;46.25;19.27;;;10.70;99.90;;;;;;4979216;28;20411;-85
2021/12/15 03:39:53;;;;;;;46.95;19.45;;;10.70;99.90;;;;;;4978063;28;20161;-85
2021/12/15 03:42:24;;;;;;;50.13;21.45;;;10.60;99.90;;;;;;4994926;28;20426;-86
2021/12/15 03:44:51;;;;;;;46.08;19.42;;;10.60;99.90;;;;;;4977546;28;20092;-85
2021/12/15 03:47:24;;;;;;;41.13;19.10;;;10.70;99.90;;;;;;4960877;28;20962;-86
2021/12/15 03:49:52;;;;;;;54.38;21.27;;;10.60;99.90;;;;;;4979767;28;20034;-85
2021/12/15 03:52:17;;;;;;;48.42;19.35;;;10.70;99.90;;;;;;4982179;28;20411;-86
2021/12/15 03:54:46;;;;;;;49.80;21.27;;;10.60;99.90;;;;;;4980271;28;20022;-82
2021/12/15 03:57:12;;;;;;;42.33;17.65;;;10.70;99.90;;;;;;4980914;28;20042;-86
2021/12/15 03:59:42;;;;;;;42.63;19.67;;;10.70;99.90;;;;;;4999891;28;20029;-84
2021/12/15 04:02:12;;;;;;;46.50;19.55;;;10.70;99.90;;;;;;5016344;28;20018;-84
2021/12/15 04:04:38;;;;;;;50.92;18.90;;;10.70;99.90;;;;;;5004830;28;20045;-83
2021/12/15 04:07:06;;;;;;;51.42;20.27;;;10.70;99.90;;;;;;5016842;28;20072;-84
2021/12/15 04:09:34;;;;;;;45.90;19.85;;;10.70;99.90;;;;;;4974679;28;20042;-86
2021/12/15 04:12:00;;;;;;;48.10;19.42;;;10.70;99.90;;;;;;5015295;28;20115;-86
2021/12/15 04:14:34;;;;;;;47.45;19.85;;;10.70;99.90;;;;;;4984356;28;20014;-85
2021/12/15 04:17:06;;;;;;;48.53;20.05;;;10.70;99.90;;;;;;5002532;28;20011;-84
2021/12/15 04:19:34;;;;;;;50.55;19.85;;;10.60;99.90;;;;;;5003917;28;20010;-85
2021/12/15 04:22:00;;;;;;;51.67;21.40;;;10.60;99.90;;;;;;4996008;28;20061;-84
2021/12/15 04:24:27;;;;;;;48.75;19.88;;;10.60;99.90;;;;;;4997669;28;20034;-84
2021/12/15 04:26:54;;;;;;;47.92;18.70;;;10.60;99.90;;;;;;4995561;28;20027;-85
2021/12/15 04:29:20;;;;;;;43.17;19.63;;;10.70;99.90;;;;;;4990312;28;20018;-83
2021/12/15 04:31:53;;;;;;;48.00;19.30;;;10.70;99.90;;;;;;5003191;28;20019;-83
2021/12/15 04:34:18;;;;;;;45.85;18.58;;;10.70;99.90;;;;;;5005468;28;20022;-84
2021/12/15 04:36:47;;;;;;;44.60;18.85;;;10.70;99.90;;;;;;5000861;28;20034;-83
2021/12/15 04:39:16;;;;;;;50.22;19.77;;;10.70;99.90;;;;;;4983746;28;20055;-83
2021/12/15 04:41:47;;;;;;;48.72;20.70;;;10.70;99.90;;;;;;4985561;28;20031;-82
2021/12/15 04:44:20;;;;;;;46.22;19.02;;;10.80;99.90;;;;;;4993444;28;20041;-84
2021/12/15 04:46:47;;;;;;;;;;;10.70;99.90;;;;;;4996691;28;20022;-82
2021/12/15 04:49:14;;;;;;;;;;;10.80;99.90;;;;;;5015277;28;20008;-84
2021/12/15 04:51:40;;;;;;;44.05;18.08;;;10.70;99.90;;;;;;4992986;28;19905;-82
2021/12/15 04:54:06;;;;;;;51.00;20.13;;;10.80;99.90;;;;;;4988818;28;20015;-84
2021/12/15 04:56:32;;;;;;;45.20;20.13;;;10.80;99.90;;;;;;4985376;28;20011;-82
2021/12/15 04:58:58;;;;;;;48.92;19.88;;;10.70;99.90;;;;;;4983027;28;20070;-83
2021/12/15 05:01:24;;;;;;;45.40;19.15;;;10.80;99.90;;;;;;4991919;28;20015;-84
2021/12/15 05:03:50;;;;;;;43.90;19.85;;;10.80;99.90;;;;;;4983413;28;20055;-85
2021/12/15 05:06:16;;;;;;;54.00;20.08;;;10.80;99.90;;;;;;4990372;28;20054;-84
2021/12/15 05:08:41;;;;;;;42.42;17.92;;;10.80;99.90;;;;;;5004875;28;20026;-83
2021/12/15 05:11:09;;;;;;;45.25;19.50;;;10.90;99.90;;;;;;4999003;28;20061;-84
2021/12/15 05:13:36;;;;;;;45.08;18.60;;;10.90;99.90;;;;;;5001953;28;20037;-84
2021/12/15 05:16:03;;;;;;;44.83;18.08;;;10.80;99.90;;;;;;5001424;28;20039;-84
2021/12/15 05:18:49;;;;;;;51.27;20.57;;;10.80;99.90;;;;;;4986266;28;20114;-84
2021/12/15 05:21:16;;;;;;;45.47;18.50;;;10.80;99.90;;;;;;4999331;28;20083;-84
2021/12/15 05:23:48;;;;;;;47.47;19.50;;;10.80;99.90;;;;;;4999091;28;20033;-85
2021/12/15 05:26:14;;;;;;;52.03;19.42;;;10.70;99.90;;;;;;4982610;28;20430;-84
2021/12/15 05:28:40;;;;;;;46.03;19.88;;;10.80;99.90;;;;;;4999570;28;20023;-83
2021/12/15 05:31:06;;;;;;;44.97;18.15;;;10.80;99.90;;;;;;4999462;28;20031;-84
2021/12/15 05:33:32;;;;;;;47.92;19.00;;;10.80;99.90;;;;;;4999559;28;20042;-85
2021/12/15 05:35:58;;;;;;;41.28;18.38;;;10.80;99.90;;;;;;4999432;28;20035;-83
2021/12/15 05:38:25;;;;;;;43.50;19.52;;;10.80;99.90;;;;;;4983030;28;20019;-85
2021/12/15 05:40:53;;;;;;;47.88;19.23;;;10.80;99.90;;;;;;4984157;28;20019;-84
2021/12/15 05:43:19;;;;;;;47.50;19.27;;;10.80;99.90;;;;;;4982458;28;20034;-85
2021/12/15 05:45:45;;;;;;;48.33;18.10;;;10.80;99.90;;;;;;4999222;28;20014;-84
2021/12/15 05:48:14;;;;;;;53.35;19.42;;;10.80;99.90;;;;;;4999466;28;20023;-85
2021/12/15 05:50:41;;;;;;;44.05;19.65;;;10.80;99.90;;;;;;4982412;28;20030;-85
2021/12/15 05:53:07;;;;;;;48.25;18.95;;;10.80;99.90;;;;;;5002880;28;20023;-84
2021/12/15 05:55:34;;;;;;;43.70;18.70;;;10.80;99.90;;;;;;5002039;28;20014;-86
2021/12/15 05:58:03;;;;;;;48.10;19.67;;;10.90;99.90;;;;;;4998160;28;20021;-84
2021/12/15 06:00:34;;;;;;;52.00;19.58;;;10.80;99.90;;;;;;4999252;28;20015;-84
2021/12/15 06:03:01;;;;;;;43.47;18.85;;;10.80;99.90;;;;;;4982129;28;20023;-85
2021/12/15 06:05:27;;;;;;;52.42;20.65;;;10.90;99.90;;;;;;4982633;28;20134;-84
2021/12/15 06:07:54;;;;;;;43.40;18.55;;;10.90;99.90;;;;;;5002901;28;20011;-85
2021/12/15 06:10:24;;;;;;;52.35;20.27;;;10.80;99.90;;;;;;5008731;28;20031;-86
2021/12/15 06:12:51;;;;;;;54.88;19.60;;;10.80;99.90;;;;;;5005929;28;20058;-87
2021/12/15 06:15:23;;;;;;;60.42;20.00;;;10.80;99.90;;;;;;5016452;28;20039;-83
2021/12/15 06:17:56;;;;;;;57.60;20.17;;;10.70;99.90;;;;;;5003317;28;20026;-84
2021/12/15 06:20:40;;;;;;;56.70;19.35;;;10.70;99.90;;;;;;4990199;28;20003;-85
2021/12/15 06:23:12;;;;;;;54.25;17.95;;;10.70;99.90;;;;;;4991291;28;20090;-84
2021/12/15 06:25:39;;;;;;;55.63;20.25;;;10.80;99.90;;;;;;5007029;28;20022;-84
2021/12/15 06:28:05;;;;;;;59.80;20.38;;;10.80;99.90;;;;;;5015238;28;20015;-83
2021/12/15 06:30:33;;;;;;;64.20;18.85;;;10.80;99.90;;;;;;4992075;28;20049;-84
2021/12/15 06:32:59;;;;;;;50.75;19.38;;;10.80;99.90;;;;;;4987706;28;20011;-85
2021/12/15 06:35:25;;;;;;;49.60;17.95;;;10.80;99.90;;;;;;4987163;28;20043;-83
2021/12/15 06:37:51;;;;;;;61.08;20.48;;;10.80;99.90;;;;;;4998039;28;20022;-85
2021/12/15 06:40:16;;;;;;;60.03;19.75;;;10.90;99.90;;;;;;4986867;28;20161;-85
2021/12/15 06:42:43;;;;;;;73.30;21.73;;;10.90;99.90;;;;;;4989883;28;20066;-86
2021/12/15 06:45:15;;;;;;;59.25;20.38;;;10.80;99.90;;;;;;4972963;28;20034;-86
2021/12/15 06:58:23;;;;;;;60.90;20.30;;;10.80;99.90;;;;;;4991897;28;20042;-86
2021/12/15 07:00:52;;;;;;;56.60;19.77;;;10.80;99.90;;;;;;4966912;28;20125;-86
2021/12/15 07:03:20;;;;;;;49.00;19.10;;;10.80;99.90;;;;;;4979585;28;20117;-87
2021/12/15 07:05:46;;;;;;;58.75;19.67;;;10.80;99.90;;;;;;4970978;28;20042;-86
2021/12/15 07:08:12;;;;;;;55.22;19.55;;;10.80;99.90;;;;;;4965045;28;20030;-85
2021/12/15 07:10:43;;;;;;;60.20;19.05;;;10.90;99.90;;;;;;4971337;28;20030;-86
2021/12/15 07:13:10;;;;;;;52.70;18.33;;;10.90;99.90;;;;;;4995942;28;20031;-88
2021/12/15 07:15:37;;;;;;;49.58;18.83;;;10.90;99.90;;;;;;4961085;28;20483;-86
2021/12/15 07:18:08;;;;;;;63.38;19.08;;;10.90;99.90;;;;;;4960709;28;20507;-87
2021/12/15 07:23:10;;;;;;;59.22;21.00;;;10.80;99.90;;;;;;4979375;28;20039;-86
2021/12/15 07:25:37;;;;;;;65.53;19.85;;;10.80;99.90;;;;;;4991757;28;20041;-87
2021/12/15 07:28:04;;;;;;;66.75;22.20;;;10.80;99.90;;;;;;4973685;28;20501;-86
2021/12/15 07:30:31;;;;;;;55.78;18.63;;;10.80;99.90;;;;;;4983482;28;20112;-87
2021/12/15 07:32:58;;;;;;;58.45;19.17;;;10.80;99.90;;;;;;4970556;28;20026;-87
2021/12/15 07:35:24;;;;;;;55.65;18.67;;;10.90;99.90;;;;;;4961295;28;20114;-86
2021/12/15 07:37:50;;;;;;;59.83;19.08;;;10.90;99.90;;;;;;4977600;28;20042;-88
2021/12/15 07:40:21;;;;;;;61.28;20.33;;;10.90;99.90;;;;;;4977840;28;20031;-87
2021/12/15 07:45:53;;;;;;;57.40;19.88;;;10.90;99.90;;;;;;4978399;28;20097;-85
2021/12/15 07:48:21;;;;;;;61.03;20.35;;;10.80;99.90;;;;;;4991432;28;20030;-86
2021/12/15 07:50:51;;;;;;;68.18;22.25;;;10.90;99.90;;;;;;4980106;28;20082;-86
2021/12/15 07:53:18;;;;;;;53.00;19.65;;;10.90;99.90;;;;;;4991273;28;20027;-88
2021/12/15 07:55:45;;;;;;;62.55;20.65;;;10.90;99.90;;;;;;4961437;28;20022;-86
2021/12/15 07:58:11;;;;;;;60.45;20.58;;;10.90;99.90;;;;;;4972593;28;20026;-88
2021/12/15 08:00:40;;;;;;;58.50;21.02;;;10.90;99.90;;;;;;4974627;28;20024;-86
2021/12/15 08:03:07;;;;;;;63.05;22.42;;;10.90;99.90;;;;;;4995085;28;20029;-88
2021/12/15 08:05:33;;;;;;;58.70;19.52;;;10.90;99.90;;;;;;4969723;28;20038;-87
2021/12/15 08:07:59;;;;;;;58.25;20.02;;;10.90;99.90;;;;;;4969741;28;20018;-87
2021/12/15 08:10:25;;;;;;;60.60;19.95;;;10.90;99.90;;;;;;4977934;28;20041;-87
2021/12/15 08:12:58;;;;;;;63.13;20.50;;;10.90;99.90;;;;;;4977945;28;20503;-87
2021/12/15 08:15:23;;;;;;;58.53;21.52;;;10.90;99.90;;;;;;4959907;28;20038;-86
2021/12/15 08:17:51;;;;;;;59.85;19.90;;;10.90;99.90;;;;;;4986303;28;20483;-84
2021/12/15 08:20:21;;;;;;;58.03;20.08;;;11.00;99.90;;;;;;4978064;28;20126;-86
2021/12/15 08:23:06;;;;;;;56.35;18.83;;;11.00;99.90;;;;;;4995246;28;20076;-86
2021/12/15 08:25:33;;;;;;;57.75;18.98;;;11.00;99.90;;;;;;4973740;28;20487;-87
2021/12/15 08:27:59;;;;;;;52.05;20.23;;;11.00;99.90;;;;;;4959594;28;20031;-86
2021/12/15 08:30:28;;;;;;;65.38;21.33;;;11.00;99.90;;;;;;4958665;28;20061;-87
2021/12/15 08:32:57;;;;;;;54.25;18.88;;;11.00;99.90;;;;;;4977669;28;20082;-84
2021/12/15 08:35:27;;;;;;;51.95;19.48;;;11.10;99.90;;;;;;4970034;28;20542;-86
2021/12/15 08:37:54;;;;;;;59.70;18.52;;;11.10;99.90;;;;;;4956650;28;20074;-86
2021/12/15 08:40:21;;;;;;;51.20;18.40;;;11.10;99.90;;;;;;4956589;28;20058;-86
2021/12/15 08:42:47;;;;;;;55.80;19.27;;;11.20;99.90;;;;;;4959205;28;20491;-87
2021/12/15 08:45:13;;;;;;;51.28;18.63;;;11.10;99.90;;;;;;4974311;28;20129;-85
2021/12/15 08:47:39;;;;;;;51.85;19.55;;;11.20;99.90;;;;;;4974434;28;20089;-85
2021/12/15 08:50:09;;;;;;;53.22;18.20;;;11.20;99.90;;;;;;4977714;28;20018;-87
2021/12/15 08:52:36;;;;;;;53.47;20.50;;;11.20;99.90;;;;;;4976214;28;20031;-87
2021/12/15 08:55:03;;;;;;;47.80;17.17;;;11.20;99.90;;;;;;4976852;28;20038;-86
2021/12/15 08:57:29;;;;;;;57.85;20.45;;;11.20;99.90;;;;;;4959683;28;20058;-85
2021/12/15 08:59:55;;;;;;;54.53;19.15;;;11.20;99.90;;;;;;4976634;28;20487;-86
2021/12/15 09:02:20;;;;;;;55.58;17.75;;;11.30;99.90;;;;;;4959989;28;20402;-86
2021/12/15 09:04:48;;;;;;;47.30;17.85;;;11.20;99.90;;;;;;4958353;28;20041;-86
2021/12/15 09:07:14;;;;;;;44.37;17.20;;;11.30;99.90;;;;;;4977022;28;20506;-85
2021/12/15 09:09:40;;;;;;;53.40;18.67;;;11.20;99.90;;;;;;4974893;28;20522;-88
2021/12/15 09:12:07;;;;;;;48.50;17.20;;;11.20;99.90;;;;;;4975537;28;20518;-87
2021/12/15 09:14:32;;;;;;;56.65;19.25;;;11.20;99.90;;;;;;4958723;28;20043;-88
2021/12/15 09:17:01;;;;;;;44.45;17.30;;;11.30;99.90;;;;;;4974468;28;20030;-87
2021/12/15 09:19:28;;;;;;;48.40;16.73;;;11.30;99.90;;;;;;4959417;28;20499;-86
2021/12/15 09:21:55;;;;;;;49.70;17.92;;;11.30;99.90;;;;;;4959387;28;20090;-87
2021/12/15 09:24:22;;;;;;;55.15;19.20;;;11.30;99.90;;;;;;4977261;28;20022;-88
2021/12/15 09:26:48;;;;;;;47.10;17.77;;;11.30;99.90;;;;;;4976152;28;20120;-87
2021/12/15 09:29:14;;;;;;;48.28;17.10;;;11.40;99.90;;;;;;4959028;28;20033;-89
2021/12/15 09:31:45;;;;;;;43.45;16.15;;;11.40;99.90;;;;;;4955670;28;20023;-83
2021/12/15 09:34:14;;;;;;;40.13;17.15;;;11.40;99.90;;;;;;4969353;28;20030;-88
2021/12/15 09:36:40;;;;;;;42.95;16.10;;;11.40;99.90;;;;;;4958056;28;20033;-88
2021/12/15 09:39:11;;;;;;;44.97;17.63;;;11.50;99.90;;;;;;4957888;28;20415;-90
2021/12/15 09:41:39;;;;;;;48.88;16.33;;;11.50;99.90;;;;;;4956786;28;20030;-85
2021/12/15 09:44:11;;;;;;;41.22;15.65;;;11.50;99.90;;;;;;4955838;28;20035;-87
2021/12/15 10:01:53;;;;;;;37.70;15.65;;;11.60;99.90;;;;;;4974923;28;20062;-91
2021/12/15 10:03:14;;;;;;;40.17;15.80;;;11.70;99.90;;;;;;4973532;28;20038;-81
2021/12/15 10:06:24;;;;;;;31.48;14.05;;;11.70;99.90;;;;;;4974089;28;20035;-83
2021/12/15 10:19:42;;;;;;;38.47;13.80;;;11.70;99.90;;;;;;4955940;29;20086;-82
2021/12/15 10:22:09;;;;;;;26.00;12.90;;;11.70;99.90;;;;;;4953236;28;20053;-85
2021/12/15 10:24:47;;;;;;;30.88;13.38;;;11.80;99.90;;;;;;4960801;28;20027;-88
2021/12/15 10:27:41;;;;;;;32.08;14.35;;;11.90;99.90;;;;;;4956434;28;20558;-85
2021/12/15 10:30:12;;;;;;;33.97;14.20;;;11.90;99.90;;;;;;4958336;28;20045;-88
2021/12/15 10:32:40;;;;;;;30.67;13.70;;;12.00;99.90;;;;;;4959287;28;20058;-89
2021/12/15 10:35:08;;;;;;;;;;;12.00;99.90;;;;;;4975388;28;20494;-82
2021/12/15 10:37:34;;;;;;;;;;;12.00;99.90;;;;;;4957744;28;19917;-82
2021/12/15 10:40:16;;;;;;;30.55;12.13;;;12.00;99.90;;;;;;4967142;28;19910;-81
2021/12/15 10:42:43;;;;;;;31.05;13.50;;;12.00;99.90;;;;;;4964092;28;20034;-80
2021/12/15 10:45:12;;;;;;;30.25;11.98;;;12.00;99.90;;;;;;4954911;28;20043;-87
2021/12/15 10:47:50;;;;;;;24.65;12.02;;;12.00;99.90;;;;;;4971397;28;20034;-81
2021/12/15 10:50:22;;;;;;;33.28;12.38;;;12.00;99.90;;;;;;4977488;28;20082;-83
2021/12/15 10:52:55;;;;;;;30.70;13.07;;;12.00;99.90;;;;;;4958133;28;20035;-79
2021/12/15 10:55:28;;;;;;;27.67;11.45;;;12.00;99.90;;;;;;4972973;28;20414;-79
2021/12/15 10:57:54;;;;;;;28.88;11.15;;;12.00;99.90;;;;;;4995165;28;20082;-80
2021/12/15 11:00:20;;;;;;;33.53;11.90;;;12.00;99.90;;;;;;4965627;28;20577;-84
2021/12/15 11:02:47;;;;;;;30.00;14.63;;;12.10;99.90;;;;;;4963330;28;20384;-82
2021/12/15 11:05:17;;;;;;;28.27;12.65;;;12.10;99.90;;;;;;4977436;28;20038;-81
2021/12/15 11:07:47;;;;;;;34.03;11.45;;;12.10;99.90;;;;;;4971404;28;20030;-83
2021/12/15 11:10:25;;;;;;;29.67;13.38;;;12.10;99.90;;;;;;4964695;28;20061;-82
2021/12/15 11:12:57;;;;;;;23.05;11.68;;;12.20;99.90;;;;;;4964346;28;20082;-80
2021/12/15 11:15:44;;;;;;;33.15;13.00;;;12.20;99.90;;;;;;4959681;28;20490;-82
2021/12/15 11:18:16;;;;;;;31.88;11.57;;;12.30;99.90;;;;;;4962514;28;20399;-81
2021/12/15 11:20:49;;;;;;;24.33;11.02;;;12.30;99.90;;;;;;4974177;28;20487;-85
2021/12/15 11:23:17;;;;;;;24.30;11.25;;;12.30;99.90;;;;;;4963135;28;20496;-81
2021/12/15 11:25:58;;;;;;;25.58;11.55;;;12.40;99.90;;;;;;4959838;28;20042;-81
2021/12/15 11:28:35;;;;;;;25.20;10.38;;;12.40;99.90;;;;;;4956085;28;20031;-81
2021/12/15 11:31:08;;;;;;;24.20;11.75;;;12.50;99.90;;;;;;4973909;28;20400;-84
2021/12/15 11:33:38;;;;;;;23.98;11.45;;;12.50;99.90;;;;;;4962171;28;20043;-82
2021/12/15 11:36:25;;;;;;;27.65;11.00;;;12.50;99.90;;;;;;4966167;28;20027;-87
2021/12/15 11:39:28;;;;;;;27.85;11.32;;;12.50;99.90;;;;;;4950799;28;20077;-84
2021/12/15 11:41:55;;;;;;;26.92;11.10;;;12.50;99.90;;;;;;4919079;29;20040;-83
2021/12/15 11:44:28;;;;;;;21.40;9.98;;;12.60;99.90;;;;;;4953942;28;20154;-85
2021/12/15 11:46:58;;;;;;;25.15;10.32;;;12.60;99.90;;;;;;4957386;28;20027;-82
2021/12/15 11:49:29;;;;;;;23.83;10.77;;;12.60;99.90;;;;;;4956875;28;20484;-82
2021/12/15 11:52:10;;;;;;;24.95;11.57;;;12.60;99.90;;;;;;4959989;28;20106;-82
2021/12/15 11:54:38;;;;;;;21.02;10.23;;;12.50;99.90;;;;;;4977545;28;20399;-84
2021/12/15 11:57:15;;;;;;;;;;;12.50;99.90;;;;;;4970452;28;20504;-84
2021/12/15 11:59:50;;;;;;;24.77;9.48;;;12.60;99.90;;;;;;4956129;28;19937;-85
2021/12/15 12:02:33;;;;;;;25.02;9.40;;;12.60;99.90;;;;;;4970009;28;20034;-83
2021/12/15 12:05:10;;;;;;;19.50;9.48;;;12.60;99.90;;;;;;4963060;28;20027;-84
2021/12/15 12:07:42;;;;;;;17.92;9.52;;;12.60;99.90;;;;;;4962251;28;20594;-87
2021/12/15 12:10:12;;;;;;;19.17;9.38;;;12.60;99.90;;;;;;4968409;28;20028;-85
2021/12/15 12:12:50;;;;;;;19.67;8.73;;;12.50;99.90;;;;;;4960319;28;20047;-84
2021/12/15 12:15:17;;;;;;;17.15;7.82;;;12.60;99.90;;;;;;4947235;28;20104;-85
2021/12/15 12:17:47;;;;;;;17.15;8.80;;;12.60;99.90;;;;;;4955384;29;20105;-83
2021/12/15 12:20:21;;;;;;;20.00;8.27;;;12.60;99.90;;;;;;4956867;29;20476;-85
2021/12/15 12:22:49;;;;;;;21.05;7.72;;;12.60;99.90;;;;;;4956490;29;20047;-84
2021/12/15 12:25:25;;;;;;;18.55;7.85;;;12.60;99.90;;;;;;4955591;29;20051;-88
2021/12/15 12:27:54;;;;;;;14.32;7.82;;;12.60;99.90;;;;;;4955872;29;20034;-84
2021/12/15 12:30:34;;;;;;;14.75;6.47;;;12.60;99.90;;;;;;4947580;29;20034;-83
2021/12/15 12:33:00;;;;;;;15.18;6.45;;;12.60;99.90;;;;;;4956455;28;20027;-84
2021/12/15 12:35:33;;;;;;;18.10;6.68;;;12.70;99.90;;;;;;4971621;28;20031;-85
2021/12/15 12:38:05;;;;;;;12.60;6.60;;;12.60;99.90;;;;;;4956791;28;20020;-85
2021/12/15 12:40:36;;;;;;;14.63;6.55;;;12.60;99.90;;;;;;4950623;29;20035;-83
2021/12/15 12:43:21;;;;;;;15.30;6.50;;;12.70;99.90;;;;;;4952443;29;20106;-83
2021/12/15 12:46:33;;;;;;;11.48;6.07;;;12.80;99.90;;;;;;4967130;28;20510;-84
2021/12/15 13:00:45;;;;;;;17.83;7.10;;;12.70;99.90;;;;;;4955808;29;20094;-82
2021/12/15 13:03:27;;;;;;;10.82;6.45;;;12.80;99.90;;;;;;4948151;29;20023;-84
2021/12/15 13:06:04;;;;;;;18.55;6.90;;;12.80;99.90;;;;;;4964445;28;20042;-81
2021/12/15 13:08:40;;;;;;;14.48;7.22;;;12.70;99.90;;;;;;4948776;29;20023;-85
2021/12/15 13:11:15;;;;;;;14.15;6.47;;;12.70;99.90;;;;;;4953015;28;20039;-83
2021/12/15 13:13:52;;;;;;;13.98;7.18;;;12.70;99.90;;;;;;4972264;28;20034;-82
2021/12/15 13:16:36;;;;;;;29.73;8.07;;;12.60;99.90;;;;;;4957305;28;20038;-81
2021/12/15 13:19:32;;;;;;;13.82;7.30;;;12.60;99.90;;;;;;4960595;28;20038;-80
2021/12/15 13:31:19;;;;;;;14.30;6.20;;;12.60;99.90;;;;;;4972980;28;20514;-81
2021/12/15 13:33:54;;;;;;;13.52;6.32;;;12.60;99.90;;;;;;4974221;28;20117;-83
2021/12/15 13:36:37;;;;;;;13.07;6.68;;;12.60;99.90;;;;;;4956835;28;20184;-86
2021/12/15 13:39:07;;;;;;;16.80;7.50;;;12.60;99.90;;;;;;4954457;29;20039;-83
2021/12/15 13:44:41;;;;;;;16.05;6.10;;;12.50;99.90;;;;;;4974865;28;20042;-81
2021/12/15 13:47:07;;;;;;;14.27;6.68;;;12.50;99.90;;;;;;4954123;28;20049;-81
2021/12/15 13:49:54;;;;;;;15.52;7.10;;;12.50;99.90;;;;;;4956556;28;20387;-84
2021/12/15 13:52:39;;;;;;;19.63;7.25;;;12.40;99.90;;;;;;4965603;28;20479;-83
2021/12/15 13:55:16;;;;;;;14.02;6.82;;;12.40;99.90;;;;;;4957914;28;20022;-82
2021/12/15 13:58:05;;;;;;;18.57;7.80;;;12.40;99.90;;;;;;4949861;28;20030;-83
2021/12/15 14:00:42;;;;;;;20.30;8.57;;;12.30;99.90;;;;;;4968295;28;20027;-85
2021/12/15 14:03:31;;;;;;;17.20;7.63;;;12.20;99.90;;;;;;4955100;28;20030;-84
2021/12/15 14:05:56;;;;;;;15.73;7.22;;;12.10;99.90;;;;;;4966906;28;20454;-83
2021/12/15 14:08:42;;;;;;;16.88;8.25;;;12.10;99.90;;;;;;4951045;28;20039;-83
2021/12/15 14:11:18;;;;;;;19.23;7.97;;;12.10;99.90;;;;;;4968041;28;20070;-82
2021/12/15 14:13:51;;;;;;;17.20;8.13;;;12.10;99.90;;;;;;4956308;28;20035;-82
2021/12/15 14:16:38;;;;;;;20.73;9.25;;;12.00;99.90;;;;;;4959955;28;20046;-83